sensor_id;sensor_type;location;lat;lon;timestamp;P1;durP1;ratioP1;P2;durP2;ratioP2
25962;SDS011;13760;52.588;13.406;2023-03-01T00:02:20;57.13;;;26.38;;
25962;SDS011;13760;52.588;13.406;2023-03-01T00:04:46;48.80;;;25.13;;
25962;SDS011;13760;52.588;13.406;2023-03-01T00:07:12;59.28;;;27.75;;
25962;SDS011;13760;52.588;13.406;2023-03-01T00:09:37;53.45;;;25.63;;
25962;SDS011;13760;52.588;13.406;2023-03-01T00:12:04;59.83;;;27.25;;
25962;SDS011;13760;52.588;13.406;2023-03-01T00:14:30;50.05;;;25.75;;
25962;SDS011;13760;52.588;13.406;2023-03-01T00:16:56;52.35;;;25.90;;
25962;SDS011;13760;52.588;13.406;2023-03-01T00:19:22;51.80;;;26.15;;
25962;SDS011;13760;52.588;13.406;2023-03-01T00:21:47;54.05;;;26.00;;
25962;SDS011;13760;52.588;13.406;2023-03-01T00:24:13;50.42;;;25.70;;
25962;SDS011;13760;52.588;13.406;2023-03-01T00:26:39;52.55;;;26.13;;
25962;SDS011;13760;52.588;13.406;2023-03-01T00:29:05;50.65;;;25.73;;
25962;SDS011;13760;52.588;13.406;2023-03-01T00:31:31;54.83;;;25.83;;
25962;SDS011;13760;52.588;13.406;2023-03-01T00:34:01;48.03;;;25.33;;
25962;SDS011;13760;52.588;13.406;2023-03-01T00:36:30;51.67;;;25.20;;
25962;SDS011;13760;52.588;13.406;2023-03-01T00:39:01;43.75;;;23.67;;
25962;SDS011;13760;52.588;13.406;2023-03-01T00:41:32;43.42;;;25.08;;
25962;SDS011;13760;52.588;13.406;2023-03-01T00:43:59;47.65;;;25.30;;
25962;SDS011;13760;52.588;13.406;2023-03-01T00:46:25;47.78;;;24.05;;
25962;SDS011;13760;52.588;13.406;2023-03-01T00:48:52;49.47;;;25.33;;
25962;SDS011;13760;52.588;13.406;2023-03-01T00:51:20;51.70;;;24.30;;
25962;SDS011;13760;52.588;13.406;2023-03-01T00:53:53;48.03;;;23.73;;
25962;SDS011;13760;52.588;13.406;2023-03-01T00:56:20;44.70;;;23.23;;
25962;SDS011;13760;52.588;13.406;2023-03-01T00:58:46;44.92;;;24.60;;
25962;SDS011;13760;52.588;13.406;2023-03-01T01:01:13;44.75;;;22.92;;
25962;SDS011;13760;52.588;13.406;2023-03-01T01:06:20;44.75;;;23.95;;
25962;SDS011;13760;52.588;13.406;2023-03-01T01:08:47;41.40;;;22.45;;
25962;SDS011;13760;52.588;13.406;2023-03-01T01:11:13;41.90;;;21.20;;
25962;SDS011;13760;52.588;13.406;2023-03-01T01:13:40;43.60;;;22.35;;
25962;SDS011;13760;52.588;13.406;2023-03-01T01:16:06;41.33;;;21.45;;
25962;SDS011;13760;52.588;13.406;2023-03-01T01:18:32;37.38;;;20.15;;
25962;SDS011;13760;52.588;13.406;2023-03-01T01:21:03;37.70;;;20.23;;
25962;SDS011;13760;52.588;13.406;2023-03-01T01:23:29;44.78;;;20.77;;
25962;SDS011;13760;52.588;13.406;2023-03-01T01:25:55;39.38;;;19.67;;
25962;SDS011;13760;52.588;13.406;2023-03-01T01:28:20;38.65;;;19.67;;
25962;SDS011;13760;52.588;13.406;2023-03-01T01:30:46;38.42;;;18.98;;
25962;SDS011;13760;52.588;13.406;2023-03-01T01:33:11;35.75;;;18.90;;
25962;SDS011;13760;52.588;13.406;2023-03-01T01:35:37;35.63;;;19.25;;
25962;SDS011;13760;52.588;13.406;2023-03-01T01:38:02;33.97;;;17.80;;
25962;SDS011;13760;52.588;13.406;2023-03-01T01:40:28;36.70;;;18.80;;
25962;SDS011;13760;52.588;13.406;2023-03-01T01:42:54;33.75;;;18.27;;
25962;SDS011;13760;52.588;13.406;2023-03-01T01:45:27;28.17;;;16.90;;
25962;SDS011;13760;52.588;13.406;2023-03-01T01:48:10;33.97;;;16.85;;
25962;SDS011;13760;52.588;13.406;2023-03-01T01:53:05;31.10;;;16.75;;
25962;SDS011;13760;52.588;13.406;2023-03-01T01:55:34;33.90;;;17.55;;
25962;SDS011;13760;52.588;13.406;2023-03-01T01:58:02;33.58;;;17.40;;
25962;SDS011;13760;52.588;13.406;2023-03-01T02:00:30;28.95;;;16.67;;
25962;SDS011;13760;52.588;13.406;2023-03-01T02:03:00;31.42;;;17.67;;
25962;SDS011;13760;52.588;13.406;2023-03-01T02:05:36;29.90;;;16.50;;
25962;SDS011;13760;52.588;13.406;2023-03-01T02:08:22;34.80;;;17.05;;
25962;SDS011;13760;52.588;13.406;2023-03-01T02:10:51;32.88;;;16.95;;
25962;SDS011;13760;52.588;13.406;2023-03-01T02:13:18;32.80;;;15.95;;
25962;SDS011;13760;52.588;13.406;2023-03-01T02:15:43;29.35;;;16.33;;
25962;SDS011;13760;52.588;13.406;2023-03-01T02:18:10;29.23;;;16.33;;
25962;SDS011;13760;52.588;13.406;2023-03-01T02:20:40;30.23;;;16.48;;
25962;SDS011;13760;52.588;13.406;2023-03-01T02:23:21;31.40;;;16.73;;
25962;SDS011;13760;52.588;13.406;2023-03-01T02:28:36;36.22;;;17.75;;
25962;SDS011;13760;52.588;13.406;2023-03-01T02:31:07;40.75;;;18.65;;
25962;SDS011;13760;52.588;13.406;2023-03-01T02:33:53;37.77;;;17.90;;
25962;SDS011;13760;52.588;13.406;2023-03-01T02:36:31;33.80;;;16.85;;
25962;SDS011;13760;52.588;13.406;2023-03-01T02:39:03;35.22;;;18.08;;
25962;SDS011;13760;52.588;13.406;2023-03-01T02:41:32;35.78;;;18.30;;
25962;SDS011;13760;52.588;13.406;2023-03-01T02:44:02;37.33;;;19.10;;
25962;SDS011;13760;52.588;13.406;2023-03-01T02:46:28;35.47;;;18.92;;
25962;SDS011;13760;52.588;13.406;2023-03-01T02:48:55;33.67;;;17.63;;
25962;SDS011;13760;52.588;13.406;2023-03-01T02:51:42;35.20;;;17.85;;
25962;SDS011;13760;52.588;13.406;2023-03-01T02:57:06;32.35;;;17.77;;
25962;SDS011;13760;52.588;13.406;2023-03-01T02:59:33;36.03;;;18.25;;
25962;SDS011;13760;52.588;13.406;2023-03-01T03:02:04;33.22;;;17.30;;
25962;SDS011;13760;52.588;13.406;2023-03-01T03:04:30;36.63;;;17.98;;
25962;SDS011;13760;52.588;13.406;2023-03-01T03:06:57;38.70;;;19.30;;
25962;SDS011;13760;52.588;13.406;2023-03-01T03:09:22;34.88;;;18.08;;
25962;SDS011;13760;52.588;13.406;2023-03-01T03:11:48;33.10;;;17.45;;
25962;SDS011;13760;52.588;13.406;2023-03-01T03:14:14;36.55;;;17.05;;
25962;SDS011;13760;52.588;13.406;2023-03-01T03:16:46;32.75;;;17.48;;
25962;SDS011;13760;52.588;13.406;2023-03-01T03:19:15;33.00;;;17.27;;
25962;SDS011;13760;52.588;13.406;2023-03-01T03:21:41;31.35;;;16.92;;
25962;SDS011;13760;52.588;13.406;2023-03-01T03:24:07;31.75;;;17.17;;
25962;SDS011;13760;52.588;13.406;2023-03-01T03:26:34;34.55;;;17.58;;
25962;SDS011;13760;52.588;13.406;2023-03-01T03:28:59;37.28;;;16.75;;
25962;SDS011;13760;52.588;13.406;2023-03-01T03:31:25;34.13;;;16.90;;
25962;SDS011;13760;52.588;13.406;2023-03-01T03:33:51;29.80;;;16.38;;
25962;SDS011;13760;52.588;13.406;2023-03-01T03:36:17;33.72;;;16.73;;
25962;SDS011;13760;52.588;13.406;2023-03-01T03:38:44;31.90;;;16.23;;
25962;SDS011;13760;52.588;13.406;2023-03-01T03:41:11;29.20;;;16.65;;
25962;SDS011;13760;52.588;13.406;2023-03-01T03:43:38;33.03;;;16.45;;
25962;SDS011;13760;52.588;13.406;2023-03-01T03:46:06;30.65;;;16.33;;
25962;SDS011;13760;52.588;13.406;2023-03-01T03:48:39;32.17;;;16.80;;
25962;SDS011;13760;52.588;13.406;2023-03-01T03:51:07;31.90;;;16.33;;
25962;SDS011;13760;52.588;13.406;2023-03-01T03:53:36;34.33;;;14.68;;
25962;SDS011;13760;52.588;13.406;2023-03-01T03:56:01;30.42;;;16.42;;
25962;SDS011;13760;52.588;13.406;2023-03-01T03:58:27;31.15;;;16.38;;
25962;SDS011;13760;52.588;13.406;2023-03-01T04:00:54;35.65;;;15.82;;
25962;SDS011;13760;52.588;13.406;2023-03-01T04:03:21;30.63;;;16.35;;
25962;SDS011;13760;52.588;13.406;2023-03-01T04:05:48;33.50;;;15.50;;
25962;SDS011;13760;52.588;13.406;2023-03-01T04:08:18;32.35;;;16.02;;
25962;SDS011;13760;52.588;13.406;2023-03-01T04:10:46;30.13;;;15.60;;
25962;SDS011;13760;52.588;13.406;2023-03-01T04:13:15;31.17;;;15.80;;
25962;SDS011;13760;52.588;13.406;2023-03-01T04:15:44;29.65;;;15.30;;
25962;SDS011;13760;52.588;13.406;2023-03-01T04:18:14;31.05;;;15.38;;
25962;SDS011;13760;52.588;13.406;2023-03-01T04:23:08;37.85;;;15.27;;
25962;SDS011;13760;52.588;13.406;2023-03-01T04:28:04;27.48;;;14.10;;
25962;SDS011;13760;52.588;13.406;2023-03-01T04:30:29;31.13;;;15.82;;
25962;SDS011;13760;52.588;13.406;2023-03-01T04:33:00;34.42;;;16.38;;
25962;SDS011;13760;52.588;13.406;2023-03-01T04:35:36;30.25;;;15.73;;
25962;SDS011;13760;52.588;13.406;2023-03-01T04:38:02;32.58;;;16.50;;
25962;SDS011;13760;52.588;13.406;2023-03-01T04:40:29;29.75;;;15.23;;
25962;SDS011;13760;52.588;13.406;2023-03-01T04:42:54;31.38;;;15.43;;
25962;SDS011;13760;52.588;13.406;2023-03-01T04:45:20;32.97;;;15.60;;
25962;SDS011;13760;52.588;13.406;2023-03-01T04:47:46;29.92;;;15.52;;
25962;SDS011;13760;52.588;13.406;2023-03-01T04:50:12;28.48;;;14.75;;
25962;SDS011;13760;52.588;13.406;2023-03-01T04:52:40;28.65;;;15.25;;
25962;SDS011;13760;52.588;13.406;2023-03-01T04:55:05;29.50;;;15.98;;
25962;SDS011;13760;52.588;13.406;2023-03-01T04:57:32;29.83;;;15.82;;
25962;SDS011;13760;52.588;13.406;2023-03-01T04:59:58;27.05;;;15.13;;
25962;SDS011;13760;52.588;13.406;2023-03-01T05:02:23;31.10;;;15.75;;
25962;SDS011;13760;52.588;13.406;2023-03-01T05:04:49;33.22;;;16.35;;
25962;SDS011;13760;52.588;13.406;2023-03-01T05:07:15;31.90;;;15.80;;
25962;SDS011;13760;52.588;13.406;2023-03-01T05:09:44;32.53;;;15.60;;
25962;SDS011;13760;52.588;13.406;2023-03-01T05:12:11;33.05;;;16.50;;
25962;SDS011;13760;52.588;13.406;2023-03-01T05:14:36;34.53;;;16.85;;
25962;SDS011;13760;52.588;13.406;2023-03-01T05:17:03;30.17;;;16.83;;
25962;SDS011;13760;52.588;13.406;2023-03-01T05:19:29;32.92;;;16.10;;
25962;SDS011;13760;52.588;13.406;2023-03-01T05:21:55;32.45;;;16.88;;
25962;SDS011;13760;52.588;13.406;2023-03-01T05:24:31;32.35;;;15.93;;
25962;SDS011;13760;52.588;13.406;2023-03-01T05:27:01;33.13;;;16.85;;
25962;SDS011;13760;52.588;13.406;2023-03-01T05:29:28;32.72;;;16.00;;
25962;SDS011;13760;52.588;13.406;2023-03-01T05:31:56;29.35;;;15.60;;
25962;SDS011;13760;52.588;13.406;2023-03-01T05:34:24;29.48;;;15.23;;
25962;SDS011;13760;52.588;13.406;2023-03-01T05:36:50;33.65;;;16.40;;
25962;SDS011;13760;52.588;13.406;2023-03-01T05:39:18;30.27;;;15.90;;
25962;SDS011;13760;52.588;13.406;2023-03-01T05:41:52;34.63;;;16.58;;
25962;SDS011;13760;52.588;13.406;2023-03-01T05:44:21;32.17;;;16.42;;
25962;SDS011;13760;52.588;13.406;2023-03-01T05:46:47;29.42;;;16.38;;
25962;SDS011;13760;52.588;13.406;2023-03-01T05:49:13;32.38;;;17.00;;
25962;SDS011;13760;52.588;13.406;2023-03-01T05:51:41;32.65;;;16.58;;
25962;SDS011;13760;52.588;13.406;2023-03-01T05:54:09;35.00;;;17.08;;
25962;SDS011;13760;52.588;13.406;2023-03-01T05:56:35;36.17;;;16.90;;
25962;SDS011;13760;52.588;13.406;2023-03-01T05:59:02;31.75;;;16.05;;
25962;SDS011;13760;52.588;13.406;2023-03-01T06:01:30;29.05;;;16.27;;
25962;SDS011;13760;52.588;13.406;2023-03-01T06:03:56;34.75;;;17.40;;
25962;SDS011;13760;52.588;13.406;2023-03-01T06:06:22;31.25;;;17.08;;
25962;SDS011;13760;52.588;13.406;2023-03-01T06:08:48;31.58;;;16.88;;
25962;SDS011;13760;52.588;13.406;2023-03-01T06:11:13;34.05;;;16.92;;
25962;SDS011;13760;52.588;13.406;2023-03-01T06:13:40;30.23;;;16.27;;
25962;SDS011;13760;52.588;13.406;2023-03-01T06:16:07;36.85;;;16.77;;
25962;SDS011;13760;52.588;13.406;2023-03-01T06:18:33;31.70;;;15.48;;
25962;SDS011;13760;52.588;13.406;2023-03-01T06:20:58;36.53;;;16.33;;
25962;SDS011;13760;52.588;13.406;2023-03-01T06:23:24;30.65;;;16.52;;
25962;SDS011;13760;52.588;13.406;2023-03-01T06:25:50;32.58;;;16.33;;
25962;SDS011;13760;52.588;13.406;2023-03-01T06:28:16;32.88;;;17.02;;
25962;SDS011;13760;52.588;13.406;2023-03-01T06:30:41;37.45;;;17.67;;
25962;SDS011;13760;52.588;13.406;2023-03-01T06:33:07;39.00;;;17.98;;
25962;SDS011;13760;52.588;13.406;2023-03-01T06:35:33;33.38;;;16.05;;
25962;SDS011;13760;52.588;13.406;2023-03-01T06:37:59;35.40;;;16.63;;
25962;SDS011;13760;52.588;13.406;2023-03-01T06:40:26;36.67;;;16.13;;
25962;SDS011;13760;52.588;13.406;2023-03-01T06:42:53;31.17;;;16.38;;
25962;SDS011;13760;52.588;13.406;2023-03-01T06:45:19;31.95;;;16.20;;
25962;SDS011;13760;52.588;13.406;2023-03-01T06:47:45;29.45;;;16.00;;
25962;SDS011;13760;52.588;13.406;2023-03-01T06:50:11;36.88;;;18.00;;
25962;SDS011;13760;52.588;13.406;2023-03-01T06:52:36;33.25;;;17.33;;
25962;SDS011;13760;52.588;13.406;2023-03-01T06:55:03;32.88;;;17.73;;
25962;SDS011;13760;52.588;13.406;2023-03-01T06:57:29;33.35;;;17.05;;
25962;SDS011;13760;52.588;13.406;2023-03-01T06:59:54;35.92;;;17.90;;
25962;SDS011;13760;52.588;13.406;2023-03-01T07:02:20;37.40;;;16.45;;
25962;SDS011;13760;52.588;13.406;2023-03-01T07:04:46;38.70;;;17.48;;
25962;SDS011;13760;52.588;13.406;2023-03-01T07:07:14;34.90;;;16.85;;
25962;SDS011;13760;52.588;13.406;2023-03-01T07:09:40;35.80;;;18.15;;
25962;SDS011;13760;52.588;13.406;2023-03-01T07:12:06;39.33;;;18.38;;
25962;SDS011;13760;52.588;13.406;2023-03-01T07:14:31;40.95;;;19.85;;
25962;SDS011;13760;52.588;13.406;2023-03-01T07:16:57;45.53;;;19.88;;
25962;SDS011;13760;52.588;13.406;2023-03-01T07:19:22;49.10;;;21.60;;
25962;SDS011;13760;52.588;13.406;2023-03-01T07:21:48;52.05;;;22.83;;
25962;SDS011;13760;52.588;13.406;2023-03-01T07:24:13;54.72;;;24.02;;
25962;SDS011;13760;52.588;13.406;2023-03-01T07:26:39;48.83;;;23.08;;
25962;SDS011;13760;52.588;13.406;2023-03-01T07:29:06;51.20;;;22.80;;
25962;SDS011;13760;52.588;13.406;2023-03-01T07:31:32;44.90;;;21.75;;
25962;SDS011;13760;52.588;13.406;2023-03-01T07:33:58;43.28;;;21.13;;
25962;SDS011;13760;52.588;13.406;2023-03-01T07:36:24;41.38;;;20.25;;
25962;SDS011;13760;52.588;13.406;2023-03-01T07:38:50;42.97;;;19.90;;
25962;SDS011;13760;52.588;13.406;2023-03-01T07:41:16;44.28;;;19.73;;
25962;SDS011;13760;52.588;13.406;2023-03-01T07:43:41;40.42;;;20.83;;
25962;SDS011;13760;52.588;13.406;2023-03-01T07:46:07;42.20;;;20.50;;
25962;SDS011;13760;52.588;13.406;2023-03-01T07:48:33;41.90;;;20.20;;
25962;SDS011;13760;52.588;13.406;2023-03-01T07:50:59;37.08;;;19.60;;
25962;SDS011;13760;52.588;13.406;2023-03-01T07:53:26;37.78;;;19.58;;
25962;SDS011;13760;52.588;13.406;2023-03-01T07:56:02;47.58;;;20.00;;
25962;SDS011;13760;52.588;13.406;2023-03-01T07:58:35;34.30;;;19.30;;
25962;SDS011;13760;52.588;13.406;2023-03-01T08:01:03;37.05;;;19.45;;
25962;SDS011;13760;52.588;13.406;2023-03-01T08:03:29;37.70;;;19.35;;
25962;SDS011;13760;52.588;13.406;2023-03-01T08:05:55;32.80;;;19.00;;
25962;SDS011;13760;52.588;13.406;2023-03-01T08:08:23;31.75;;;17.08;;
25962;SDS011;13760;52.588;13.406;2023-03-01T08:10:49;30.55;;;16.50;;
25962;SDS011;13760;52.588;13.406;2023-03-01T08:13:15;27.25;;;16.73;;
25962;SDS011;13760;52.588;13.406;2023-03-01T08:15:40;27.05;;;15.15;;
25962;SDS011;13760;52.588;13.406;2023-03-01T08:18:06;27.85;;;15.38;;
25962;SDS011;13760;52.588;13.406;2023-03-01T08:20:31;30.50;;;15.52;;
25962;SDS011;13760;52.588;13.406;2023-03-01T08:22:57;27.95;;;16.15;;
25962;SDS011;13760;52.588;13.406;2023-03-01T08:25:23;28.58;;;15.13;;
25962;SDS011;13760;52.588;13.406;2023-03-01T08:27:48;33.88;;;15.43;;
25962;SDS011;13760;52.588;13.406;2023-03-01T08:30:14;28.92;;;14.93;;
25962;SDS011;13760;52.588;13.406;2023-03-01T08:32:40;27.08;;;15.60;;
25962;SDS011;13760;52.588;13.406;2023-03-01T08:35:06;24.58;;;14.05;;
25962;SDS011;13760;52.588;13.406;2023-03-01T08:37:31;22.75;;;11.40;;
25962;SDS011;13760;52.588;13.406;2023-03-01T08:39:58;22.67;;;11.75;;
25962;SDS011;13760;52.588;13.406;2023-03-01T08:42:24;22.38;;;10.65;;
25962;SDS011;13760;52.588;13.406;2023-03-01T08:44:50;27.77;;;11.60;;
25962;SDS011;13760;52.588;13.406;2023-03-01T08:47:16;26.55;;;12.10;;
25962;SDS011;13760;52.588;13.406;2023-03-01T08:49:42;19.73;;;9.93;;
25962;SDS011;13760;52.588;13.406;2023-03-01T08:52:07;18.42;;;11.40;;
25962;SDS011;13760;52.588;13.406;2023-03-01T08:54:33;20.02;;;10.98;;
25962;SDS011;13760;52.588;13.406;2023-03-01T08:57:00;16.77;;;9.38;;
25962;SDS011;13760;52.588;13.406;2023-03-01T08:59:27;17.33;;;9.13;;
25962;SDS011;13760;52.588;13.406;2023-03-01T09:01:54;15.27;;;8.20;;
25962;SDS011;13760;52.588;13.406;2023-03-01T09:04:20;11.82;;;5.75;;
25962;SDS011;13760;52.588;13.406;2023-03-01T09:06:46;8.55;;;4.25;;
25962;SDS011;13760;52.588;13.406;2023-03-01T09:09:13;9.50;;;4.38;;
25962;SDS011;13760;52.588;13.406;2023-03-01T09:11:41;9.38;;;4.78;;
25962;SDS011;13760;52.588;13.406;2023-03-01T09:14:07;10.25;;;5.05;;
25962;SDS011;13760;52.588;13.406;2023-03-01T09:16:33;13.02;;;5.70;;
25962;SDS011;13760;52.588;13.406;2023-03-01T09:19:00;10.07;;;4.95;;
25962;SDS011;13760;52.588;13.406;2023-03-01T09:21:26;9.98;;;5.10;;
25962;SDS011;13760;52.588;13.406;2023-03-01T09:23:52;11.13;;;4.63;;
25962;SDS011;13760;52.588;13.406;2023-03-01T09:26:18;9.05;;;4.38;;
25962;SDS011;13760;52.588;13.406;2023-03-01T09:28:50;10.13;;;4.32;;
25962;SDS011;13760;52.588;13.406;2023-03-01T09:31:18;8.48;;;4.13;;
25962;SDS011;13760;52.588;13.406;2023-03-01T09:33:46;9.05;;;4.55;;
25962;SDS011;13760;52.588;13.406;2023-03-01T09:36:14;12.73;;;4.82;;
25962;SDS011;13760;52.588;13.406;2023-03-01T09:39:03;16.63;;;5.20;;
25962;SDS011;13760;52.588;13.406;2023-03-01T09:44:27;11.23;;;5.40;;
25962;SDS011;13760;52.588;13.406;2023-03-01T09:46:51;9.38;;;4.45;;
25962;SDS011;13760;52.588;13.406;2023-03-01T09:49:18;10.82;;;4.93;;
25962;SDS011;13760;52.588;13.406;2023-03-01T09:54:55;8.27;;;4.30;;
25962;SDS011;13760;52.588;13.406;2023-03-01T09:57:30;6.43;;;3.55;;
25962;SDS011;13760;52.588;13.406;2023-03-01T10:02:59;9.48;;;4.53;;
25962;SDS011;13760;52.588;13.406;2023-03-01T10:05:41;7.28;;;4.18;;
25962;SDS011;13760;52.588;13.406;2023-03-01T10:08:26;12.88;;;5.10;;
25962;SDS011;13760;52.588;13.406;2023-03-01T10:11:01;8.75;;;3.85;;
25962;SDS011;13760;52.588;13.406;2023-03-01T10:16:21;12.73;;;4.77;;
25962;SDS011;13760;52.588;13.406;2023-03-01T10:19:19;10.73;;;4.88;;
25962;SDS011;13760;52.588;13.406;2023-03-01T10:21:54;10.60;;;4.45;;
25962;SDS011;13760;52.588;13.406;2023-03-01T10:24:27;7.68;;;4.32;;
25962;SDS011;13760;52.588;13.406;2023-03-01T10:27:07;8.85;;;4.20;;
25962;SDS011;13760;52.588;13.406;2023-03-01T10:29:48;7.18;;;4.10;;
25962;SDS011;13760;52.588;13.406;2023-03-01T10:32:16;9.75;;;4.80;;
25962;SDS011;13760;52.588;13.406;2023-03-01T10:34:43;7.25;;;3.92;;
25962;SDS011;13760;52.588;13.406;2023-03-01T10:37:13;6.38;;;4.00;;
25962;SDS011;13760;52.588;13.406;2023-03-01T10:44:57;16.35;;;3.97;;
25962;SDS011;13760;52.588;13.406;2023-03-01T10:47:24;6.10;;;3.67;;
25962;SDS011;13760;52.588;13.406;2023-03-01T10:52:23;8.10;;;4.18;;
25962;SDS011;13760;52.588;13.406;2023-03-01T10:54:52;6.82;;;4.10;;
25962;SDS011;13760;52.588;13.406;2023-03-01T10:57:34;10.45;;;3.47;;
25962;SDS011;13760;52.588;13.406;2023-03-01T11:00:16;7.72;;;3.47;;
25962;SDS011;13760;52.588;13.406;2023-03-01T11:03:08;8.48;;;4.07;;
25962;SDS011;13760;52.588;13.406;2023-03-01T11:05:37;10.07;;;3.70;;
25962;SDS011;13760;52.588;13.406;2023-03-01T11:08:25;5.43;;;3.20;;
25962;SDS011;13760;52.588;13.406;2023-03-01T11:13:51;9.98;;;3.78;;
25962;SDS011;13760;52.588;13.406;2023-03-01T11:16:26;6.00;;;3.10;;
25962;SDS011;13760;52.588;13.406;2023-03-01T11:18:56;6.53;;;2.97;;
25962;SDS011;13760;52.588;13.406;2023-03-01T11:21:24;10.75;;;3.80;;
25962;SDS011;13760;52.588;13.406;2023-03-01T11:23:51;8.25;;;3.47;;
25962;SDS011;13760;52.588;13.406;2023-03-01T11:26:17;6.47;;;3.13;;
25962;SDS011;13760;52.588;13.406;2023-03-01T11:28:44;7.53;;;3.28;;
25962;SDS011;13760;52.588;13.406;2023-03-01T11:31:14;5.67;;;3.13;;
25962;SDS011;13760;52.588;13.406;2023-03-01T11:33:49;5.97;;;3.70;;
25962;SDS011;13760;52.588;13.406;2023-03-01T11:42:25;7.80;;;3.38;;
25962;SDS011;13760;52.588;13.406;2023-03-01T11:44:54;6.47;;;3.30;;
25962;SDS011;13760;52.588;13.406;2023-03-01T11:47:31;5.70;;;3.03;;
25962;SDS011;13760;52.588;13.406;2023-03-01T12:11:54;5.25;;;3.50;;
25962;SDS011;13760;52.588;13.406;2023-03-01T12:22:30;13.90;;;3.78;;
25962;SDS011;13760;52.588;13.406;2023-03-01T12:25:18;7.45;;;3.20;;
25962;SDS011;13760;52.588;13.406;2023-03-01T12:30:57;4.85;;;3.47;;
25962;SDS011;13760;52.588;13.406;2023-03-01T12:36:25;4.82;;;3.20;;
25962;SDS011;13760;52.588;13.406;2023-03-01T12:39:15;7.05;;;3.22;;
25962;SDS011;13760;52.588;13.406;2023-03-01T12:44:51;6.93;;;3.33;;
25962;SDS011;13760;52.588;13.406;2023-03-01T12:47:26;5.97;;;2.83;;
25962;SDS011;13760;52.588;13.406;2023-03-01T12:50:10;4.65;;;2.45;;
25962;SDS011;13760;52.588;13.406;2023-03-01T12:52:50;5.03;;;3.17;;
25962;SDS011;13760;52.588;13.406;2023-03-01T12:55:39;4.65;;;2.78;;
25962;SDS011;13760;52.588;13.406;2023-03-01T12:58:21;6.53;;;2.53;;
25962;SDS011;13760;52.588;13.406;2023-03-01T13:11:52;4.68;;;2.80;;
25962;SDS011;13760;52.588;13.406;2023-03-01T13:16:50;3.13;;;2.22;;
25962;SDS011;13760;52.588;13.406;2023-03-01T13:19:22;5.22;;;2.58;;
25962;SDS011;13760;52.588;13.406;2023-03-01T13:21:54;4.80;;;2.38;;
25962;SDS011;13760;52.588;13.406;2023-03-01T13:27:08;4.93;;;2.15;;
25962;SDS011;13760;52.588;13.406;2023-03-01T13:29:46;4.18;;;2.30;;
25962;SDS011;13760;52.588;13.406;2023-03-01T13:32:18;4.05;;;1.88;;
25962;SDS011;13760;52.588;13.406;2023-03-01T13:34:45;4.60;;;2.13;;
25962;SDS011;13760;52.588;13.406;2023-03-01T13:37:23;5.13;;;2.80;;
25962;SDS011;13760;52.588;13.406;2023-03-01T13:39:55;4.97;;;2.47;;
25962;SDS011;13760;52.588;13.406;2023-03-01T13:42:39;3.15;;;2.25;;
25962;SDS011;13760;52.588;13.406;2023-03-01T13:48:16;3.75;;;2.20;;
25962;SDS011;13760;52.588;13.406;2023-03-01T13:50:50;4.65;;;2.35;;
25962;SDS011;13760;52.588;13.406;2023-03-01T13:53:20;7.53;;;2.47;;
25962;SDS011;13760;52.588;13.406;2023-03-01T13:55:55;4.68;;;2.15;;
25962;SDS011;13760;52.588;13.406;2023-03-01T13:58:29;4.57;;;2.10;;
25962;SDS011;13760;52.588;13.406;2023-03-01T14:01:01;3.03;;;1.80;;
25962;SDS011;13760;52.588;13.406;2023-03-01T14:03:32;4.78;;;2.08;;
25962;SDS011;13760;52.588;13.406;2023-03-01T14:06:09;4.03;;;1.95;;
25962;SDS011;13760;52.588;13.406;2023-03-01T14:08:40;3.33;;;2.10;;
25962;SDS011;13760;52.588;13.406;2023-03-01T14:16:20;4.32;;;2.50;;
25962;SDS011;13760;52.588;13.406;2023-03-01T14:21:43;7.43;;;2.50;;
25962;SDS011;13760;52.588;13.406;2023-03-01T14:24:20;3.78;;;2.15;;
25962;SDS011;13760;52.588;13.406;2023-03-01T14:26:47;4.68;;;2.25;;
25962;SDS011;13760;52.588;13.406;2023-03-01T14:32:20;4.35;;;2.10;;
25962;SDS011;13760;52.588;13.406;2023-03-01T14:34:48;3.90;;;2.20;;
25962;SDS011;13760;52.588;13.406;2023-03-01T14:37:19;4.07;;;1.88;;
25962;SDS011;13760;52.588;13.406;2023-03-01T14:39:48;3.65;;;1.98;;
25962;SDS011;13760;52.588;13.406;2023-03-01T14:42:17;4.20;;;2.20;;
25962;SDS011;13760;52.588;13.406;2023-03-01T14:45:27;5.30;;;1.92;;
25962;SDS011;13760;52.588;13.406;2023-03-01T14:47:55;2.75;;;2.20;;
25962;SDS011;13760;52.588;13.406;2023-03-01T14:50:29;5.85;;;2.13;;
25962;SDS011;13760;52.588;13.406;2023-03-01T14:53:04;3.28;;;1.95;;
25962;SDS011;13760;52.588;13.406;2023-03-01T14:55:38;3.05;;;2.20;;
25962;SDS011;13760;52.588;13.406;2023-03-01T14:58:14;5.38;;;2.10;;
25962;SDS011;13760;52.588;13.406;2023-03-01T15:00:48;4.53;;;2.28;;
25962;SDS011;13760;52.588;13.406;2023-03-01T15:03:33;4.95;;;2.47;;
25962;SDS011;13760;52.588;13.406;2023-03-01T15:06:07;5.07;;;2.50;;
25962;SDS011;13760;52.588;13.406;2023-03-01T15:09:15;4.30;;;2.47;;
25962;SDS011;13760;52.588;13.406;2023-03-01T15:11:42;3.35;;;2.33;;
25962;SDS011;13760;52.588;13.406;2023-03-01T15:17:03;5.68;;;2.13;;
25962;SDS011;13760;52.588;13.406;2023-03-01T15:19:29;5.10;;;2.30;;
25962;SDS011;13760;52.588;13.406;2023-03-01T15:21:55;4.78;;;2.40;;
25962;SDS011;13760;52.588;13.406;2023-03-01T15:24:23;5.60;;;2.42;;
25962;SDS011;13760;52.588;13.406;2023-03-01T15:29:21;4.23;;;2.77;;
25962;SDS011;13760;52.588;13.406;2023-03-01T15:34:37;5.47;;;2.15;;
25962;SDS011;13760;52.588;13.406;2023-03-01T15:37:04;5.63;;;2.63;;
25962;SDS011;13760;52.588;13.406;2023-03-01T15:39:34;7.43;;;3.03;;
25962;SDS011;13760;52.588;13.406;2023-03-01T15:42:08;5.63;;;3.20;;
25962;SDS011;13760;52.588;13.406;2023-03-01T15:44:36;5.90;;;3.08;;
25962;SDS011;13760;52.588;13.406;2023-03-01T15:47:06;5.35;;;3.10;;
25962;SDS011;13760;52.588;13.406;2023-03-01T15:49:53;7.00;;;2.80;;
25962;SDS011;13760;52.588;13.406;2023-03-01T15:52:24;4.38;;;2.72;;
25962;SDS011;13760;52.588;13.406;2023-03-01T15:55:05;6.47;;;2.75;;
25962;SDS011;13760;52.588;13.406;2023-03-01T15:57:40;10.82;;;3.60;;
25962;SDS011;13760;52.588;13.406;2023-03-01T16:00:05;7.85;;;3.30;;
25962;SDS011;13760;52.588;13.406;2023-03-01T16:02:36;5.88;;;3.42;;
25962;SDS011;13760;52.588;13.406;2023-03-01T16:05:02;6.85;;;3.22;;
25962;SDS011;13760;52.588;13.406;2023-03-01T16:07:29;5.15;;;3.40;;
25962;SDS011;13760;52.588;13.406;2023-03-01T16:09:56;7.88;;;3.85;;
25962;SDS011;13760;52.588;13.406;2023-03-01T16:12:22;7.05;;;3.65;;
25962;SDS011;13760;52.588;13.406;2023-03-01T16:14:49;6.63;;;4.15;;
25962;SDS011;13760;52.588;13.406;2023-03-01T16:17:15;7.05;;;3.40;;
25962;SDS011;13760;52.588;13.406;2023-03-01T16:19:40;7.28;;;3.63;;
25962;SDS011;13760;52.588;13.406;2023-03-01T16:22:06;8.98;;;4.43;;
25962;SDS011;13760;52.588;13.406;2023-03-01T16:24:33;7.28;;;4.32;;
25962;SDS011;13760;52.588;13.406;2023-03-01T16:27:00;7.13;;;4.07;;
25962;SDS011;13760;52.588;13.406;2023-03-01T16:29:26;8.20;;;4.05;;
25962;SDS011;13760;52.588;13.406;2023-03-01T16:31:54;9.48;;;4.40;;
25962;SDS011;13760;52.588;13.406;2023-03-01T16:34:19;10.27;;;4.18;;